createdAt,value
2023-05-20T00:01:21.944Z,101638.66
2023-05-20T00:03:49.222Z,101631.38
2023-05-20T00:06:16.045Z,101638.63
2023-05-20T00:08:42.543Z,101641.22
2023-05-20T00:11:09.336Z,101639.53
2023-05-20T00:13:36.217Z,101632.47
2023-05-20T00:16:02.703Z,101629.72
2023-05-20T00:18:29.445Z,101631.59
2023-05-20T00:20:56.065Z,101630.47
2023-05-20T00:23:22.529Z,101632.34
2023-05-20T00:25:49.169Z,101636.63
2023-05-20T00:28:15.900Z,101638.41
2023-05-20T00:30:42.555Z,101650.06
2023-05-20T00:33:08.998Z,101642.97
2023-05-20T00:35:35.850Z,101640.97
2023-05-20T00:38:02.461Z,101643.81
2023-05-20T00:40:28.962Z,101640.25
2023-05-20T00:42:55.659Z,101641.16
2023-05-20T00:45:23.992Z,101640.22
2023-05-20T00:47:50.499Z,101635.81
2023-05-20T00:50:16.949Z,101640.13
2023-05-20T00:52:45.294Z,101635.84
2023-05-20T00:55:11.746Z,101636.69
2023-05-20T00:57:38.116Z,101635.81
2023-05-20T01:00:04.553Z,101630.53
2023-05-20T01:02:31.111Z,101630.31
2023-05-20T01:04:57.659Z,101633.00
2023-05-20T01:07:25.422Z,101632.19
2023-05-20T01:09:52.969Z,101633.75
2023-05-20T01:12:19.434Z,101635.56
2023-05-20T01:14:45.835Z,101630.16
2023-05-20T01:17:12.633Z,101637.28
2023-05-20T01:19:39.036Z,101631.09
2023-05-20T01:22:05.448Z,101632.06
2023-05-20T01:24:31.857Z,101634.69
2023-05-20T01:26:59.708Z,101628.44
2023-05-20T01:29:26.426Z,101631.09
2023-05-20T01:31:54.969Z,101630.22
2023-05-20T01:34:21.502Z,101631.97
2023-05-20T01:36:48.298Z,101629.16
2023-05-20T01:39:14.745Z,101627.19
2023-05-20T01:41:41.839Z,101617.66
2023-05-20T01:44:08.386Z,101623.81
2023-05-20T01:46:35.026Z,101619.38
2023-05-20T01:49:02.160Z,101620.06
2023-05-20T01:51:29.605Z,101626.22
2023-05-20T01:53:56.248Z,101619.78
2023-05-20T01:56:22.961Z,101621.84
2023-05-20T01:58:49.394Z,101619.97
2023-05-20T02:01:15.883Z,101618.03
2023-05-20T02:03:43.361Z,101619.97
2023-05-20T02:06:09.763Z,101615.47
2023-05-20T02:08:36.189Z,101612.63
2023-05-20T02:11:02.765Z,101607.34
2023-05-20T02:13:29.250Z,101608.81
2023-05-20T02:15:55.713Z,101615.28
2023-05-20T02:18:26.547Z,101599.25
2023-05-20T02:20:53.036Z,101613.41
2023-05-20T02:23:20.522Z,101601.19
2023-05-20T02:25:47.048Z,101606.38
2023-05-20T02:28:13.455Z,101606.56
2023-05-20T02:30:39.905Z,101608.47
2023-05-20T02:33:07.026Z,101608.25
2023-05-20T02:35:33.809Z,101599.69
2023-05-20T02:38:00.501Z,101607.19
2023-05-20T02:40:26.933Z,101605.31
2023-05-20T02:42:53.836Z,101604.41
2023-05-20T02:45:20.404Z,101598.19
2023-05-20T02:47:46.938Z,101608.19
2023-05-20T02:50:13.486Z,101600.88
2023-05-20T02:52:42.343Z,101595.63
2023-05-20T02:55:09.043Z,101593.06
2023-05-20T02:57:38.298Z,101589.59
2023-05-20T03:00:07.232Z,101593.09
2023-05-20T03:02:33.950Z,101593.94
2023-05-20T03:05:00.545Z,101582.38
2023-05-20T03:07:27.032Z,101577.16
2023-05-20T03:09:53.797Z,101588.50
2023-05-20T03:12:20.380Z,101586.84
2023-05-20T03:14:47.082Z,101582.31
2023-05-20T03:17:13.533Z,101583.34
2023-05-20T03:19:39.937Z,101580.47
2023-05-20T03:22:06.440Z,101592.69
2023-05-20T03:24:33.011Z,101590.38
2023-05-20T03:26:59.486Z,101591.13
2023-05-20T03:29:25.995Z,101592.00
2023-05-20T03:31:52.477Z,101596.53
2023-05-20T03:34:18.926Z,101588.72
2023-05-20T03:36:46.765Z,101585.25
2023-05-20T03:39:13.256Z,101586.09
2023-05-20T03:41:40.349Z,101589.22
2023-05-20T03:44:06.818Z,101589.44
2023-05-20T03:46:34.335Z,101577.94
2023-05-20T03:49:02.270Z,101576.94
2023-05-20T03:51:29.585Z,101574.22
2023-05-20T03:54:02.563Z,101570.44
2023-05-20T03:56:29.019Z,101572.28
2023-05-20T03:58:55.433Z,101568.91
2023-05-20T04:01:25.624Z,101569.88
2023-05-20T04:03:52.198Z,101574.34
2023-05-20T04:06:19.009Z,101568.03
2023-05-20T04:08:45.897Z,101569.88
2023-05-20T04:11:12.291Z,101569.94
2023-05-20T04:13:38.731Z,101573.59
2023-05-20T04:16:05.482Z,101572.06
2023-05-20T04:18:32.043Z,101572.72
2023-05-20T04:21:00.168Z,101572.88
2023-05-20T04:23:26.725Z,101563.06
2023-05-20T04:25:55.140Z,101566.59
2023-05-20T04:28:23.942Z,101578.69
2023-05-20T04:30:50.474Z,101574.88
2023-05-20T04:33:18.505Z,101576.94
2023-05-20T04:35:44.978Z,101575.09
2023-05-20T04:38:11.429Z,101577.56
2023-05-20T04:40:39.221Z,101582.53
2023-05-20T04:43:06.016Z,101578.72
2023-05-20T04:45:34.057Z,101573.13
2023-05-20T04:48:00.779Z,101571.56
2023-05-20T04:50:27.305Z,101573.34
2023-05-20T04:52:53.851Z,101576.09
2023-05-20T04:55:21.541Z,101568.91
2023-05-20T04:57:48.044Z,101569.69
2023-05-20T05:00:14.520Z,101573.09
2023-05-20T05:02:41.068Z,101567.13
2023-05-20T05:05:07.897Z,101562.75
2023-05-20T05:07:34.535Z,101549.84
2023-05-20T05:10:01.185Z,101547.66
2023-05-20T05:12:29.966Z,101552.13
2023-05-20T05:14:59.083Z,101546.75
2023-05-20T05:17:26.481Z,101540.84
2023-05-20T05:19:53.012Z,101543.94
2023-05-20T05:22:19.532Z,101530.66
2023-05-20T05:24:46.286Z,101534.97
2023-05-20T05:27:12.858Z,101531.81
2023-05-20T05:29:39.277Z,101541.16
2023-05-20T05:32:05.829Z,101532.56
2023-05-20T05:34:32.273Z,101529.13
2023-05-20T05:36:59.253Z,101529.22
2023-05-20T05:39:25.713Z,101536.47
2023-05-20T05:41:54.111Z,101529.22
2023-05-20T05:44:21.216Z,101526.38
2023-05-20T05:46:48.046Z,101518.03
2023-05-20T05:49:14.577Z,101511.75
2023-05-20T05:51:41.065Z,101519.78
2023-05-20T05:54:07.462Z,101514.72
2023-05-20T05:56:34.677Z,101521.06
2023-05-20T05:59:01.142Z,101516.13
2023-05-20T06:01:27.713Z,101516.03
2023-05-20T06:03:54.297Z,101520.72
2023-05-20T06:06:21.919Z,101510.31
2023-05-20T06:08:48.587Z,101516.41
2023-05-20T06:11:15.756Z,101515.63
2023-05-20T06:13:42.369Z,101509.50
2023-05-20T06:16:11.523Z,101522.03
2023-05-20T06:18:38.016Z,101507.72
2023-05-20T06:21:05.614Z,101532.69
2023-05-20T06:23:32.158Z,101510.47
2023-05-20T06:26:01.779Z,101495.34
2023-05-20T06:28:29.338Z,101502.41
2023-05-20T06:30:55.908Z,101500.59
2023-05-20T06:33:25.893Z,101505.38
2023-05-20T06:35:52.881Z,101489.28
2023-05-20T06:38:21.775Z,101491.06
2023-05-20T06:40:48.807Z,101481.22
2023-05-20T06:43:15.512Z,101485.72
2023-05-20T06:46:04.366Z,101482.97
2023-05-20T06:48:35.775Z,101485.72
2023-05-20T06:51:02.482Z,101479.47
2023-05-20T06:53:28.972Z,101472.19
2023-05-20T06:55:58.480Z,101476.81
2023-05-20T06:58:25.985Z,101488.34
2023-05-20T07:00:54.830Z,101475.91
2023-05-20T07:03:21.393Z,101487.53
2023-05-20T07:05:47.940Z,101477.53
2023-05-20T07:08:14.560Z,101466.03
2023-05-20T07:10:41.277Z,101474.09
2023-05-20T07:13:08.630Z,101471.50
2023-05-20T07:15:35.350Z,101471.53
2023-05-20T07:18:02.169Z,101457.25
2023-05-20T07:20:29.532Z,101476.84
2023-05-20T07:22:58.967Z,101469.72
2023-05-20T07:25:32.098Z,101466.19
2023-05-20T07:28:00.475Z,101464.38
2023-05-20T07:30:27.378Z,101460.81
2023-05-20T07:33:09.623Z,101471.53
2023-05-20T07:35:36.644Z,101458.13
2023-05-20T07:38:03.269Z,101458.16
2023-05-20T07:40:30.021Z,101465.28
2023-05-20T07:42:56.705Z,101464.38
2023-05-20T07:45:23.290Z,101460.78
2023-05-20T07:47:50.101Z,101453.66
2023-05-20T07:50:17.029Z,101451.00
2023-05-20T07:52:54.982Z,101458.16
2023-05-20T07:55:23.469Z,101467.97
2023-05-20T07:57:49.993Z,101453.69
2023-05-20T08:00:16.676Z,101467.94
2023-05-20T08:02:46.430Z,101475.97
2023-05-20T08:05:17.343Z,101476.84
2023-05-20T08:07:45.732Z,101473.28
2023-05-20T08:10:13.696Z,101475.09
2023-05-20T08:12:40.294Z,101471.50
2023-05-20T08:15:07.110Z,101457.25
2023-05-20T08:17:35.238Z,101459.91
2023-05-20T08:20:01.864Z,101466.16
2023-05-20T08:22:28.887Z,101451.00
2023-05-20T08:24:55.542Z,101457.25
2023-05-20T08:27:22.032Z,101460.78
2023-05-20T08:29:48.471Z,101466.19
2023-05-20T08:32:14.914Z,101456.34
2023-05-20T08:34:42.757Z,101462.59
2023-05-20T08:37:09.160Z,101460.81
2023-05-20T08:39:35.605Z,101459.03
2023-05-20T08:42:03.138Z,101457.28
2023-05-20T08:44:29.575Z,101443.88
2023-05-20T08:46:57.014Z,101451.81
2023-05-20T08:49:23.868Z,101447.38
2023-05-20T08:51:50.305Z,101448.31
2023-05-20T08:54:16.919Z,101463.50
2023-05-20T08:56:43.368Z,101448.34
2023-05-20T08:59:10.136Z,101456.34
2023-05-20T09:01:36.961Z,101455.47
2023-05-20T09:04:03.410Z,101453.69
2023-05-20T09:06:30.078Z,101452.78
2023-05-20T09:08:56.817Z,101455.50
2023-05-20T09:11:23.850Z,101451.91
2023-05-20T09:13:50.265Z,101447.41
2023-05-20T09:16:17.036Z,101449.16
2023-05-20T09:18:43.618Z,101462.59
2023-05-20T09:21:10.155Z,101457.19
2023-05-20T09:23:36.600Z,101464.34
2023-05-20T09:26:03.001Z,101454.56
2023-05-20T09:28:29.411Z,101452.78
2023-05-20T09:30:56.099Z,101452.69
2023-05-20T09:33:22.561Z,101448.97
2023-05-20T09:35:48.903Z,101442.03
2023-05-20T09:38:15.411Z,101475.09
2023-05-20T09:40:41.750Z,101466.16
2023-05-20T09:43:08.274Z,101457.97
2023-05-20T09:45:34.889Z,101466.03
2023-05-20T09:48:01.618Z,101457.88
2023-05-20T09:50:28.761Z,101451.56
2023-05-20T09:52:55.280Z,101459.59
2023-05-20T09:55:21.883Z,101465.81
2023-05-20T09:57:48.327Z,101448.09
2023-05-20T10:00:17.209Z,101450.66
2023-05-20T10:02:43.748Z,101456.91
2023-05-20T10:05:10.196Z,101455.94
2023-05-20T10:07:42.198Z,101456.03
2023-05-20T10:10:09.553Z,101454.41
2023-05-20T10:12:35.953Z,101458.75
2023-05-20T10:15:02.371Z,101441.75
2023-05-20T10:17:28.836Z,101436.44
2023-05-20T10:19:55.269Z,101442.69
2023-05-20T10:22:21.722Z,101438.84
2023-05-20T10:24:49.170Z,101440.91
2023-05-20T10:27:16.126Z,101430.34
2023-05-20T10:29:43.216Z,101441.97
2023-05-20T10:32:09.709Z,101434.59
2023-05-20T10:34:36.128Z,101428.38
2023-05-20T10:37:02.549Z,101420.88
2023-05-20T10:39:29.029Z,101436.06
2023-05-20T10:41:55.516Z,101436.50
2023-05-20T10:44:21.954Z,101433.75
2023-05-20T10:47:03.862Z,101444.59
2023-05-20T10:49:35.354Z,101430.25
2023-05-20T10:52:01.900Z,101429.41
2023-05-20T10:54:29.455Z,101444.56
2023-05-20T10:56:55.885Z,101435.47
2023-05-20T10:59:22.460Z,101431.03
2023-05-20T11:01:49.023Z,101443.50
2023-05-20T11:04:15.445Z,101433.00
2023-05-20T11:06:41.902Z,101433.50
2023-05-20T11:09:08.360Z,101423.69
2023-05-20T11:11:34.808Z,101422.06
2023-05-20T11:14:01.240Z,101423.91
2023-05-20T11:16:27.813Z,101425.53
2023-05-20T11:18:54.465Z,101417.25
2023-05-20T11:21:20.923Z,101419.22
2023-05-20T11:23:47.385Z,101409.59
2023-05-20T11:29:42.146Z,101417.25
2023-05-20T11:32:08.771Z,101415.66
2023-05-20T11:34:35.249Z,101425.16
2023-05-20T11:37:02.509Z,101418.97
2023-05-20T11:39:29.357Z,101411.88
2023-05-20T11:41:55.735Z,101422.66
2023-05-20T11:44:22.151Z,101414.50
2023-05-20T11:46:48.535Z,101417.78
2023-05-20T11:49:15.006Z,101409.63
2023-05-20T11:51:41.467Z,101397.22
2023-05-20T11:54:07.871Z,101392.59
2023-05-20T11:56:34.335Z,101391.34
2023-05-20T11:59:00.824Z,101386.38
2023-05-20T12:01:28.381Z,101378.63
2023-05-20T12:03:55.060Z,101374.97
2023-05-20T12:06:21.665Z,101373.34
2023-05-20T12:08:48.455Z,101374.13
2023-05-20T12:11:15.033Z,101375.94
2023-05-20T12:13:41.494Z,101372.31
2023-05-20T12:16:07.924Z,101359.63
2023-05-20T12:18:34.420Z,101359.91
2023-05-20T12:21:00.844Z,101359.66
2023-05-20T12:23:27.457Z,101351.50
2023-05-20T12:25:53.874Z,101354.94
2023-05-20T12:28:20.325Z,101347.81
2023-05-20T12:30:46.734Z,101343.94
2023-05-20T12:33:13.541Z,101342.00
2023-05-20T12:35:40.003Z,101332.34
2023-05-20T12:40:33.612Z,101330.47
2023-05-20T12:43:00.249Z,101336.34
2023-05-20T12:45:26.624Z,101329.75
2023-05-20T12:47:53.068Z,101330.34
2023-05-20T12:50:19.483Z,101321.81
2023-05-20T12:52:45.967Z,101317.88
2023-05-20T12:55:13.839Z,101318.16
2023-05-20T12:57:40.312Z,101315.41
2023-05-20T13:00:06.700Z,101320.66
2023-05-20T13:02:33.125Z,101318.28
2023-05-20T13:04:59.615Z,101326.44
2023-05-20T13:07:26.888Z,101296.97
2023-05-20T13:09:53.287Z,101312.28
2023-05-20T13:12:19.695Z,101319.41
2023-05-20T13:14:46.757Z,101304.38
2023-05-20T13:17:13.194Z,101297.97
2023-05-20T13:19:39.621Z,101298.41
2023-05-20T13:22:06.790Z,101281.00
2023-05-20T13:24:33.217Z,101295.25
2023-05-20T13:27:01.126Z,101284.88
2023-05-20T13:29:27.886Z,101298.47
2023-05-20T13:31:54.288Z,101300.84
2023-05-20T13:34:20.729Z,101296.94
2023-05-20T13:36:47.864Z,101291.22
2023-05-20T13:39:14.261Z,101291.03
2023-05-20T13:41:40.773Z,101284.72
2023-05-20T13:44:07.306Z,101290.00
2023-05-20T13:46:33.762Z,101289.56
2023-05-20T13:49:00.341Z,101277.69
2023-05-20T13:51:26.753Z,101282.50
2023-05-20T13:53:53.190Z,101279.91
2023-05-20T13:56:19.781Z,101272.41
2023-05-20T13:58:46.197Z,101264.63
2023-05-20T14:01:12.679Z,101270.72
2023-05-20T14:03:40.749Z,101265.47
2023-05-20T14:06:07.251Z,101263.75
2023-05-20T14:08:33.667Z,101251.53
2023-05-20T14:11:00.088Z,101252.59
2023-05-20T14:13:26.531Z,101253.47
2023-05-20T14:15:54.632Z,101242.31
2023-05-20T14:18:21.217Z,101241.47
2023-05-20T14:20:47.676Z,101250.38
2023-05-20T14:23:14.127Z,101233.00
2023-05-20T14:25:40.654Z,101235.28
2023-05-20T14:28:07.065Z,101231.94
2023-05-20T14:30:33.716Z,101237.47
2023-05-20T14:33:00.584Z,101246.53
2023-05-20T14:35:27.255Z,101234.59
2023-05-20T14:37:53.950Z,101238.31
2023-05-20T14:40:20.449Z,101234.28
2023-05-20T14:42:46.853Z,101229.16
2023-05-20T14:45:13.328Z,101226.34
2023-05-20T14:47:42.812Z,101219.91
2023-05-20T14:50:09.259Z,101220.88
2023-05-20T14:52:35.883Z,101211.13
2023-05-20T14:55:02.310Z,101212.72
2023-05-20T14:57:28.724Z,101212.47
2023-05-20T14:59:55.542Z,101217.91
2023-05-20T15:02:22.207Z,101219.38
2023-05-20T15:04:48.747Z,101224.78
2023-05-20T15:07:15.193Z,101192.94
2023-05-20T15:09:42.041Z,101215.53
2023-05-20T15:12:08.462Z,101220.06
2023-05-20T15:14:34.878Z,101227.50
2023-05-20T15:17:01.356Z,101219.84
2023-05-20T15:19:27.955Z,101214.81
2023-05-20T15:21:54.975Z,101209.63
2023-05-20T15:24:22.664Z,101216.31
2023-05-20T15:29:15.550Z,101224.22
2023-05-20T15:31:41.962Z,101211.38
2023-05-20T15:34:08.486Z,101223.69
2023-05-20T15:36:34.873Z,101219.16
2023-05-20T15:39:01.287Z,101222.22
2023-05-20T15:41:27.757Z,101231.16
2023-05-20T15:43:54.487Z,101225.31
2023-05-20T15:46:21.387Z,101228.25
2023-05-20T15:48:47.854Z,101217.56
2023-05-20T15:51:14.765Z,101216.84
2023-05-20T15:53:41.341Z,101226.97
2023-05-20T15:56:07.926Z,101218.81
2023-05-20T15:58:34.370Z,101206.28
2023-05-20T16:01:01.052Z,101213.72
2023-05-20T16:03:27.711Z,101203.81
2023-05-20T16:05:54.210Z,101197.78
2023-05-20T16:08:23.664Z,101209.88
2023-05-20T16:10:50.090Z,101206.59
2023-05-20T16:13:16.733Z,101197.44
2023-05-20T16:15:43.261Z,101203.81
2023-05-20T16:18:09.810Z,101201.84
2023-05-20T16:20:36.391Z,101205.09
2023-05-20T16:23:02.955Z,101197.59
2023-05-20T16:25:29.414Z,101209.59
2023-05-20T16:27:57.377Z,101205.16
2023-05-20T16:30:23.746Z,101206.81
2023-05-20T16:32:50.281Z,101196.16
2023-05-20T16:35:16.757Z,101202.31
2023-05-20T16:37:44.438Z,101193.38
2023-05-20T16:40:11.143Z,101202.69
2023-05-20T16:42:39.501Z,101200.69
2023-05-20T16:45:05.948Z,101203.66
2023-05-20T16:47:33.048Z,101197.25
2023-05-20T16:49:59.500Z,101199.09
2023-05-20T16:52:26.112Z,101204.81
2023-05-20T16:54:52.647Z,101205.44
2023-05-20T16:57:19.279Z,101214.31
2023-05-20T16:59:45.967Z,101220.91
2023-05-20T17:02:12.369Z,101214.91
2023-05-20T17:04:38.795Z,101223.75
2023-05-20T17:07:09.687Z,101220.63
2023-05-20T17:09:36.748Z,101221.25
2023-05-20T17:12:03.200Z,101237.38
2023-05-20T17:14:29.597Z,101241.19
2023-05-20T17:16:56.163Z,101242.75
2023-05-20T17:19:22.601Z,101250.06
2023-05-20T17:21:49.043Z,101251.88
2023-05-20T17:24:15.645Z,101252.50
2023-05-20T17:26:42.125Z,101246.63
2023-05-20T17:29:08.533Z,101253.50
2023-05-20T17:31:34.944Z,101242.78
2023-05-20T17:34:01.679Z,101241.03
2023-05-20T17:36:28.113Z,101241.38
2023-05-20T17:38:54.494Z,101245.00
2023-05-20T17:41:21.884Z,101245.03
2023-05-20T17:43:48.349Z,101242.63
2023-05-20T17:46:14.870Z,101238.53
2023-05-20T17:48:41.485Z,101248.38
2023-05-20T17:51:07.882Z,101241.53
2023-05-20T17:53:34.293Z,101238.31
2023-05-20T17:56:01.287Z,101236.28
2023-05-20T17:58:27.756Z,101235.09
2023-05-20T18:00:54.239Z,101239.53
2023-05-20T18:03:20.712Z,101239.97
2023-05-20T18:05:47.688Z,101246.47
2023-05-20T18:08:14.089Z,101239.59
2023-05-20T18:10:40.502Z,101236.38
2023-05-20T18:13:06.899Z,101241.66
2023-05-20T18:15:33.332Z,101244.91
2023-05-20T18:17:59.836Z,101233.94
2023-05-20T18:20:26.323Z,101241.00
2023-05-20T18:22:58.200Z,101236.22
2023-05-20T18:25:24.590Z,101233.97
2023-05-20T18:27:51.126Z,101234.13
2023-05-20T18:30:17.495Z,101229.75
2023-05-20T18:32:43.924Z,101234.28
2023-05-20T18:35:10.472Z,101239.66
2023-05-20T18:37:36.950Z,101245.09
2023-05-20T18:40:03.572Z,101241.09
2023-05-20T18:42:29.968Z,101241.56
2023-05-20T18:44:56.508Z,101238.22
2023-05-20T18:47:23.018Z,101233.91
2023-05-20T18:49:49.489Z,101243.06
2023-05-20T18:52:16.223Z,101243.69
2023-05-20T18:54:42.637Z,101242.09
2023-05-20T18:57:09.377Z,101248.97
2023-05-20T18:59:35.847Z,101248.28
2023-05-20T19:02:02.262Z,101250.47
2023-05-20T19:04:28.715Z,101255.16
2023-05-20T19:06:55.174Z,101252.31
2023-05-20T19:09:21.613Z,101254.22
2023-05-20T19:11:48.032Z,101252.38
2023-05-20T19:14:14.442Z,101250.59
2023-05-20T19:16:41.094Z,101248.38
2023-05-20T19:19:07.648Z,101245.53
2023-05-20T19:21:34.269Z,101244.72
2023-05-20T19:24:01.024Z,101240.78
2023-05-20T19:26:27.479Z,101241.00
2023-05-20T19:28:53.893Z,101245.25
2023-05-20T19:31:23.629Z,101245.47
2023-05-20T19:33:50.111Z,101238.41
2023-05-20T19:36:16.696Z,101242.03
2023-05-20T19:38:43.297Z,101237.50
2023-05-20T19:41:09.773Z,101240.09
2023-05-20T19:43:36.151Z,101248.28
2023-05-20T19:46:02.579Z,101243.13
2023-05-20T19:48:29.055Z,101251.75
2023-05-20T19:50:55.456Z,101251.63
2023-05-20T19:53:21.916Z,101249.88
2023-05-20T19:55:48.306Z,101246.34
2023-05-20T19:58:14.713Z,101257.34
2023-05-20T20:00:41.145Z,101260.91
2023-05-20T20:03:07.743Z,101260.66
2023-05-20T20:05:34.439Z,101259.19
2023-05-20T20:08:01.067Z,101260.94
2023-05-20T20:10:27.450Z,101266.56
2023-05-20T20:12:53.852Z,101262.63
2023-05-20T20:15:20.656Z,101263.72
2023-05-20T20:17:52.006Z,101262.81
2023-05-20T20:20:18.749Z,101260.19
2023-05-20T20:22:45.222Z,101260.03
2023-05-20T20:25:15.557Z,101277.28
2023-05-20T20:27:43.899Z,101276.22
2023-05-20T20:30:10.670Z,101265.56
2023-05-20T20:32:38.006Z,101270.06
2023-05-20T20:35:05.102Z,101267.16
2023-05-20T20:37:31.513Z,101262.97
2023-05-20T20:39:57.980Z,101258.53
2023-05-20T20:42:24.437Z,101254.88
2023-05-20T20:44:52.439Z,101253.97
2023-05-20T20:47:18.885Z,101250.56
2023-05-20T20:49:45.367Z,101251.28
2023-05-20T20:52:12.368Z,101246.16
2023-05-20T20:54:40.704Z,101244.16
2023-05-20T20:57:08.545Z,101244.44
2023-05-20T20:59:35.004Z,101233.72
2023-05-20T21:02:01.609Z,101241.00
2023-05-20T21:04:28.095Z,101235.50
2023-05-20T21:06:54.579Z,101242.59
2023-05-20T21:09:21.120Z,101236.25
2023-05-20T21:11:49.435Z,101237.16
2023-05-20T21:14:15.988Z,101234.44
2023-05-20T21:16:43.098Z,101238.31
2023-05-20T21:19:09.745Z,101230.28
2023-05-20T21:21:36.261Z,101236.47
2023-05-20T21:24:02.964Z,101243.59
2023-05-20T21:26:29.365Z,101235.34
2023-05-20T21:28:55.818Z,101229.03
2023-05-20T21:31:22.287Z,101231.81
2023-05-20T21:33:48.724Z,101233.63
2023-05-20T21:36:15.208Z,101226.16
2023-05-20T21:38:41.661Z,101221.91
2023-05-20T21:41:08.578Z,101220.84
2023-05-20T21:43:36.015Z,101226.25
2023-05-20T21:46:02.647Z,101213.81
2023-05-20T21:48:29.114Z,101219.28
2023-05-20T21:50:56.183Z,101220.28
2023-05-20T21:53:22.599Z,101213.88
2023-05-20T21:55:49.023Z,101212.44
2023-05-20T21:58:15.543Z,101204.63
2023-05-20T22:00:42.761Z,101208.91
2023-05-20T22:03:09.752Z,101196.47
2023-05-20T22:05:37.105Z,101198.34
2023-05-20T22:08:03.808Z,101200.84
2023-05-20T22:10:34.023Z,101203.44
2023-05-20T22:13:02.322Z,101192.09
2023-05-20T22:15:28.835Z,101192.03
2023-05-20T22:17:55.355Z,101194.84
2023-05-20T22:20:22.188Z,101193.03
2023-05-20T22:22:48.686Z,101191.16
2023-05-20T22:25:15.152Z,101192.00
2023-05-20T22:27:43.837Z,101179.56
2023-05-20T22:30:10.258Z,101182.97
2023-05-20T22:32:36.977Z,101185.00
2023-05-20T22:35:03.699Z,101178.59
2023-05-20T22:37:30.186Z,101168.03
2023-05-20T22:39:56.636Z,101170.72
2023-05-20T22:42:23.058Z,101165.53
2023-05-20T22:44:49.585Z,101166.41
2023-05-20T22:47:16.032Z,101160.94
2023-05-20T22:49:42.433Z,101152.84
2023-05-20T22:52:08.929Z,101150.19
2023-05-20T22:54:35.384Z,101153.78
2023-05-20T22:57:01.809Z,101155.63
2023-05-20T22:59:31.129Z,101147.56
2023-05-20T23:01:58.000Z,101143.09
2023-05-20T23:04:24.423Z,101144.84
2023-05-20T23:06:53.551Z,101140.44
2023-05-20T23:09:20.263Z,101140.59
2023-05-20T23:11:46.731Z,101137.72
2023-05-20T23:14:13.121Z,101139.53
2023-05-20T23:16:42.055Z,101142.28
2023-05-20T23:19:08.741Z,101142.97
2023-05-20T23:21:35.190Z,101142.13
2023-05-20T23:24:01.666Z,101132.31
2023-05-20T23:26:28.811Z,101128.88
2023-05-20T23:28:55.293Z,101118.22
2023-05-20T23:31:22.670Z,101119.13
2023-05-20T23:33:49.246Z,101116.19
2023-05-20T23:36:17.090Z,101120.03
2023-05-20T23:38:43.581Z,101111.94
2023-05-20T23:41:10.035Z,101107.41
2023-05-20T23:43:36.453Z,101106.47
2023-05-20T23:46:02.940Z,101101.19
2023-05-20T23:48:29.844Z,101092.41
2023-05-20T23:50:56.292Z,101098.50
2023-05-20T23:53:22.831Z,101100.38
2023-05-20T23:55:49.554Z,101092.03
2023-05-20T23:58:16.624Z,101092.38
